»·PEaware :: BOE561 KRNO-KJAC

BOE561 :: KRNO-KJAC

FLIGHT INFORMATION

Flight Status: Arrived
Operator:
Boeing Commercial Airplane Group
More flights by this operator :: More flights under this callsign
Pilot: Ben F. (2808)
Aircraft: BOEING 737-200
(B732)
More flights by this aircraft type
Origin: KRNO Reno/Tahoe Intl
United States
Destination: KJAC Jackson Hole
United States
More flights between these airports :: More routes between these airports
Route: RENO9 LLC BAM J32 MLD DNW
File this flight plan on PilotEdge
Remarks:
Altitude:
(Current/Filed)
33,000ft
Speed:
(Current/Filed)
429kts
Departed: 14-Mar-18 06:11 PM
Arrived: 14-Mar-18 07:32 PM
Distance/Time
Traveled:
474nm/1:21
Distance/Time
To Go:
Arrived

Flight Plot

Page will automatically refresh every two minutes.

Flight plan parsing failed; only flown route is shown


Map Options




Map Legend


Flown Route
Filed Route
Departure Airport
Arrival Airport
Navaid (VOR, NDB)
Fix

Horizontal Profiles

Position Reports

Time Latitude Longitude Heading Altitude Ground
Speed
14-Mar-18 17:53 39.501126 -119.764515 110 4424ft 0kts
14-Mar-18 17:54 39.501126 -119.764515 110 4424ft 0kts
14-Mar-18 17:55 39.501126 -119.764515 110 4424ft 0kts
14-Mar-18 17:56 39.501126 -119.764515 110 4424ft 0kts
14-Mar-18 17:57 39.501126 -119.764515 110 4424ft 0kts
14-Mar-18 17:58 39.501126 -119.764515 110 4424ft 0kts
14-Mar-18 17:59 39.501126 -119.764515 110 4424ft 0kts
14-Mar-18 18:00 39.501126 -119.764515 110 4424ft 0kts
14-Mar-18 18:01 39.501126 -119.764515 110 4424ft 0kts
14-Mar-18 18:02 39.501126 -119.764515 110 4424ft 0kts
14-Mar-18 18:03 39.501126 -119.764514 110 4424ft 0kts
14-Mar-18 18:04 39.500023 -119.765172 182 4424ft 6kts
14-Mar-18 18:05 39.498557 -119.765180 180 4424ft 7kts
14-Mar-18 18:06 39.493627 -119.765211 181 4424ft 26kts
14-Mar-18 18:07 39.489248 -119.765719 265 4424ft 0kts
14-Mar-18 18:08 39.489248 -119.765719 266 4424ft 0kts
14-Mar-18 18:09 39.489723 -119.766774 352 4424ft 14kts
14-Mar-18 18:10 39.505874 -119.766500 354 4452ft 163kts
14-Mar-18 18:11 39.552440 -119.750519 13 6594ft 200kts
14-Mar-18 18:12 39.616581 -119.723941 13 8014ft 285kts
14-Mar-18 18:13 39.683899 -119.671539 56 10808ft 310kts
14-Mar-18 18:14 39.721418 -119.586603 61 12354ft 345kts
14-Mar-18 18:15 39.774967 -119.453937 61 14804ft 370kts
14-Mar-18 18:16 39.814792 -119.355560 61 16505ft 380kts
14-Mar-18 18:17 39.870804 -119.216793 62 18532ft 393kts
14-Mar-18 18:18 39.912706 -119.112587 62 19847ft 401kts
14-Mar-18 18:19 39.964081 -118.984327 62 21234ft 412kts
14-Mar-18 18:20 40.016694 -118.852453 62 22432ft 422kts
14-Mar-18 18:21 40.070622 -118.716754 62 23463ft 432kts
14-Mar-18 18:22 40.122991 -118.582692 67 24376ft 439kts
14-Mar-18 18:23 40.164923 -118.435402 70 25249ft 445kts
14-Mar-18 18:24 40.204915 -118.290018 71 25996ft 451kts
14-Mar-18 18:25 40.246771 -118.136674 72 26683ft 456kts
14-Mar-18 18:26 40.288800 -117.981748 72 27312ft 460kts
14-Mar-18 18:27 40.330893 -117.825623 72 27883ft 465kts
14-Mar-18 18:28 40.373296 -117.667357 72 28549ft 465kts
14-Mar-18 18:29 40.415767 -117.507837 72 29188ft 465kts
14-Mar-18 18:30 40.457356 -117.350615 73 29823ft 465kts
14-Mar-18 18:31 40.497512 -117.197811 74 30216ft 468kts
14-Mar-18 18:32 40.539072 -117.038792 74 30757ft 467kts
14-Mar-18 18:33 40.585725 -116.881454 66 31102ft 476kts
14-Mar-18 18:34 40.645462 -116.727771 66 31521ft 478kts
14-Mar-18 18:35 40.704945 -116.575428 67 32206ft 473kts
14-Mar-18 18:36 40.763944 -116.423547 67 32745ft 472kts
14-Mar-18 18:37 40.821576 -116.274377 68 32870ft 480kts
14-Mar-18 18:38 40.881754 -116.117862 68 32867ft 487kts
14-Mar-18 18:39 40.942272 -115.959667 68 32869ft 484kts
14-Mar-18 18:40 41.002748 -115.800774 68 32873ft 487kts
14-Mar-18 18:41 41.063185 -115.641017 69 32874ft 489kts
14-Mar-18 18:42 41.120471 -115.488813 69 32857ft 488kts
14-Mar-18 18:43 41.177932 -115.335267 70 32858ft 482kts
14-Mar-18 18:44 41.236090 -115.179073 70 32854ft 479kts
14-Mar-18 18:45 41.294473 -115.021481 71 32857ft 480kts
14-Mar-18 18:46 41.352316 -114.863046 71 32855ft 481kts
14-Mar-18 18:47 41.409869 -114.703937 71 32844ft 483kts
14-Mar-18 18:48 41.467111 -114.544815 71 32844ft 485kts
14-Mar-18 18:49 41.524744 -114.384527 71 32842ft 487kts
14-Mar-18 18:50 41.578383 -114.235578 72 32853ft 487kts
14-Mar-18 18:51 41.636127 -114.074370 71 32844ft 489kts
14-Mar-18 18:52 41.694316 -113.911021 72 32844ft 490kts
14-Mar-18 18:53 41.752192 -113.747597 72 32843ft 491kts
14-Mar-18 18:54 41.809824 -113.583898 71 32843ft 492kts
14-Mar-18 18:55 41.867295 -113.419814 71 32845ft 494kts
14-Mar-18 18:56 41.911654 -113.292700 72 32841ft 495kts
14-Mar-18 18:57 41.966565 -113.134554 72 32843ft 495kts
14-Mar-18 18:58 42.023311 -112.970130 72 32845ft 496kts
14-Mar-18 18:59 42.080299 -112.804032 72 32847ft 496kts
14-Mar-18 19:00 42.133711 -112.647501 72 32821ft 491kts
14-Mar-18 19:01 42.188475 -112.486611 68 32820ft 488kts
14-Mar-18 19:02 42.280567 -112.351259 47 32832ft 500kts
14-Mar-18 19:03 42.375284 -112.231396 47 32832ft 497kts
14-Mar-18 19:04 42.474756 -112.105676 47 32833ft 494kts
14-Mar-18 19:05 42.574506 -111.979042 47 32837ft 496kts
14-Mar-18 19:06 42.674056 -111.852097 47 32558ft 493kts
14-Mar-18 19:07 42.771867 -111.726795 47 30246ft 484kts
14-Mar-18 19:08 42.865676 -111.606007 47 28340ft 468kts
14-Mar-18 19:09 42.955510 -111.484608 62 26246ft 444kts
14-Mar-18 19:10 42.996418 -111.339858 77 24339ft 412kts
14-Mar-18 19:11 43.032049 -111.199737 77 22426ft 393kts
14-Mar-18 19:12 43.066335 -111.063558 76 20409ft 378kts
14-Mar-18 19:13 43.098846 -110.932342 76 18415ft 364kts
14-Mar-18 19:14 43.127159 -110.809007 75 16373ft 354kts
14-Mar-18 19:15 43.154322 -110.684217 75 14360ft 343kts
14-Mar-18 19:16 43.199480 -110.585504 17 14039ft 316kts
14-Mar-18 19:17 43.286012 -110.550824 17 14029ft 332kts
14-Mar-18 19:18 43.374499 -110.515432 17 14028ft 340kts
14-Mar-18 19:19 43.462203 -110.480633 17 13997ft 339kts
14-Mar-18 19:20 43.548718 -110.446241 17 13998ft 335kts
14-Mar-18 19:21 43.635991 -110.411455 17 13989ft 316kts
14-Mar-18 19:22 43.719805 -110.377925 17 14001ft 318kts
14-Mar-18 19:23 43.805369 -110.358197 339 13058ft 326kts
14-Mar-18 19:24 43.846055 -110.451836 281 12282ft 289kts
14-Mar-18 19:25 43.862234 -110.557434 274 11150ft 276kts
14-Mar-18 19:26 43.818550 -110.626543 204 10019ft 255kts
14-Mar-18 19:27 43.759062 -110.664843 195 9440ft 222kts
14-Mar-18 19:28 43.705527 -110.690024 197 8419ft 170kts
14-Mar-18 19:29 43.665120 -110.709685 197 7534ft 156kts
14-Mar-18 19:30 43.625984 -110.728736 198 6698ft 144kts
14-Mar-18 19:31 43.600207 -110.741235 197 6460ft 20kts
14-Mar-18 19:32 43.601965 -110.738743 19 6460ft 14kts
14-Mar-18 19:33 43.603093 -110.737250 109 6460ft 0kts
14-Mar-18 19:34 43.603093 -110.737251 109 6460ft 0kts

Navigation Log

Ident Type
Flight plan parsing failed, navigation log unavailable